Time;durP1;ratioP1;P1;durP2;ratioP2;P2;SDS_P1;SDS_P2;PMS_P1;PMS_P2;Temp;Humidity;BMP_temperature;BMP_pressure;BME280_temperature;BME280_humidity;BME280_pressure;Samples;Min_cycle;Max_cycle;Signal;HPM_P1;HPM_P2
2021/12/16 00:02:09;;;;;;;0.93;0.30;;;1.50;99.90;;;;;;20789293;28;20041;-50
2021/12/16 00:33:33;;;;;;;0.00;0.00;;;1.50;99.90;;;;;;20565871;28;20512;-50
2021/12/16 00:43:49;;;;;;;0.77;0.20;;;1.90;99.90;;;;;;20564239;28;20078;-51
2021/12/16 00:54:11;;;;;;;0.22;0.10;;;2.00;99.90;;;;;;20695497;28;20116;-51
2021/12/16 01:55:57;;;;;;;0.00;0.00;;;2.10;99.90;;;;;;20794713;28;20033;-49
2021/12/16 02:06:58;;;;;;;0.10;0.00;;;2.20;99.90;;;;;;20807262;28;20030;-50
2021/12/16 02:37:19;;;;;;;;;;;2.20;99.90;;;;;;20686732;28;1417444;-54
2021/12/16 02:57:55;;;;;;;0.50;0.00;;;2.30;99.90;;;;;;20807443;28;20033;-51
2021/12/16 03:07:59;;;;;;;0.10;0.00;;;2.20;99.90;;;;;;20805725;28;20030;-49
2021/12/16 03:18:21;;;;;;;0.10;0.00;;;2.20;99.90;;;;;;20790714;28;20064;-49
2021/12/16 03:38:37;;;;;;;0.17;0.00;;;2.50;99.90;;;;;;20803978;28;20049;-50
2021/12/16 03:48:46;;;;;;;0.32;0.00;;;2.50;99.90;;;;;;20804733;28;20037;-49
2021/12/16 03:58:53;;;;;;;0.00;0.00;;;2.50;99.90;;;;;;20802888;28;20103;-51
2021/12/16 04:08:57;;;;;;;1.65;0.00;;;2.50;99.90;;;;;;20786317;28;20083;-52
2021/12/16 04:19:11;;;;;;;0.20;0.00;;;2.50;99.90;;;;;;20801490;28;20406;-50
2021/12/16 04:29:17;;;;;;;0.10;0.00;;;2.60;99.90;;;;;;20784969;28;20033;-49
2021/12/16 04:39:25;;;;;;;0.00;0.00;;;2.70;99.90;;;;;;20784711;28;20475;-49
2021/12/16 04:49:28;;;;;;;0.45;0.00;;;2.60;99.90;;;;;;20800998;28;20083;-48
2021/12/16 04:59:34;;;;;;;0.00;0.00;;;2.80;99.90;;;;;;20783662;28;20439;-50
2021/12/16 05:19:49;;;;;;;0.75;0.00;;;2.90;99.90;;;;;;20783757;28;20091;-49
2021/12/16 05:29:52;;;;;;;0.00;0.00;;;2.90;99.90;;;;;;20799398;28;20099;-50
2021/12/16 05:39:56;;;;;;;0.10;0.00;;;3.10;99.90;;;;;;20813465;28;20131;-49
2021/12/16 05:50:13;;;;;;;0.00;0.00;;;3.20;99.90;;;;;;20813332;28;20083;-51
2021/12/16 06:00:25;;;;;;;0.00;0.00;;;3.40;99.90;;;;;;20812947;28;20042;-50
2021/12/16 06:31:05;;;;;;;0.00;0.00;;;3.30;99.90;;;;;;20811329;28;20441;-51
2021/12/16 06:41:08;;;;;;;0.10;0.00;;;3.20;99.90;;;;;;20809636;28;20045;-49
2021/12/16 06:51:33;;;;;;;0.00;0.00;;;3.10;99.90;;;;;;20808941;28;20092;-50
2021/12/16 07:11:43;;;;;;;0.00;0.00;;;2.90;99.90;;;;;;20651970;28;20034;-52
2021/12/16 07:21:45;;;;;;;0.00;0.00;;;2.80;99.90;;;;;;20635746;28;20050;-50
2021/12/16 07:31:48;;;;;;;0.10;0.00;;;2.90;99.90;;;;;;20634946;28;20058;-52
2021/12/16 07:41:52;;;;;;;1.00;0.00;;;2.90;99.90;;;;;;20647282;28;20049;-50
2021/12/16 07:51:57;;;;;;;0.05;0.00;;;3.30;99.90;;;;;;20724939;28;20048;-49
2021/12/16 08:02:03;;;;;;;0.00;0.00;;;4.00;99.90;;;;;;20721789;28;20088;-49
2021/12/16 08:12:13;;;;;;;0.10;0.00;;;4.70;99.90;;;;;;20732429;28;20091;-49
2021/12/16 08:22:16;;;;;;;0.00;0.00;;;5.20;99.90;;;;;;20802132;28;20044;-50
2021/12/16 08:32:18;;;;;;;0.00;0.00;;;5.80;99.80;;;;;;20802319;28;20363;-51
2021/12/16 08:42:21;;;;;;;0.00;0.00;;;6.60;98.90;;;;;;20800200;28;20045;-52
2021/12/16 08:52:24;;;;;;;0.10;0.00;;;7.40;97.60;;;;;;20800133;28;20035;-48
2021/12/16 09:02:27;;;;;;;0.25;0.00;;;7.70;97.20;;;;;;20775493;28;20491;-50
2021/12/16 09:22:34;;;;;;;0.00;0.00;;;8.60;94.90;;;;;;20734142;28;20042;-51
2021/12/16 09:32:38;;;;;;;0.08;0.00;;;9.20;93.70;;;;;;20733917;28;20491;-49
2021/12/16 09:42:41;;;;;;;0.20;0.10;;;9.70;93.70;;;;;;20807467;28;20080;-51
2021/12/16 09:52:44;;;;;;;0.30;0.08;;;10.60;92.20;;;;;;20813142;28;20033;-53
2021/12/16 10:02:46;;;;;;;0.32;0.00;;;11.30;90.20;;;;;;20812011;28;20037;-50
2021/12/16 10:12:51;;;;;;;0.63;0.20;;;12.00;88.60;;;;;;20795019;28;20565;-53
2021/12/16 10:23:18;;;;;;;0.50;0.15;;;12.60;87.60;;;;;;20726754;28;20042;-50
2021/12/16 10:33:52;;;;;;;0.30;0.20;;;12.80;82.10;;;;;;20727802;28;20088;-50
2021/12/16 10:44:04;;;;;;;0.50;0.20;;;13.00;82.70;;;;;;20556223;28;20055;-50
2021/12/16 10:54:14;;;;;;;0.30;0.10;;;13.50;79.30;;;;;;20556216;28;20437;-52
2021/12/16 11:04:41;;;;;;;0.68;0.50;;;13.70;77.60;;;;;;20516874;28;20069;-51
2021/12/16 11:14:48;;;;;;;2.80;0.90;;;14.10;78.20;;;;;;20548336;28;20069;-49
2021/12/16 11:24:53;;;;;;;1.15;0.40;;;14.40;77.40;;;;;;20723627;28;20597;-54
2021/12/16 11:34:56;;;;;;;3.35;1.38;;;14.40;72.20;;;;;;20730748;28;20098;-54
2021/12/16 11:44:59;;;;;;;2.28;0.70;;;14.40;75.80;;;;;;20790002;28;20087;-52
2021/12/16 11:55:11;;;;;;;0.93;0.50;;;14.40;76.40;;;;;;20805590;28;20037;-54
2021/12/16 12:05:31;;;;;;;0.95;0.50;;;14.20;75.80;;;;;;20787594;28;20045;-53
2021/12/16 12:15:53;;;;;;;;;;;14.20;76.70;;;;;;20805112;28;20087;-56
2021/12/16 12:25:57;;;;;;;1.58;0.82;;;13.90;76.60;;;;;;20802709;28;19913;-50
2021/12/16 12:36:01;;;;;;;0.80;0.50;;;13.80;77.60;;;;;;20801835;28;20107;-50
2021/12/16 12:46:07;;;;;;;1.85;1.20;;;13.40;74.40;;;;;;20801379;28;20038;-50
2021/12/16 12:56:29;;;;;;;7.22;2.72;;;13.10;78.60;;;;;;20800538;28;20076;-57
2021/12/16 13:07:06;;;;;;;4.18;2.55;;;12.50;81.80;;;;;;20741976;28;20486;-59
2021/12/16 13:37:35;;;;;;;8.13;4.10;;;9.20;90.60;;;;;;20766819;28;20042;-60
2021/12/16 13:47:50;;;;;;;4.53;3.20;;;8.30;92.00;;;;;;20797989;28;20033;-60
2021/12/16 14:08:32;;;;;;;7.82;4.97;;;7.10;94.10;;;;;;20730241;28;20108;-59
2021/12/16 14:49:48;;;;;;;8.85;5.13;;;5.30;99.90;;;;;;20808919;28;20034;-60
2021/12/16 14:59:53;;;;;;;8.05;4.82;;;5.00;99.90;;;;;;20788388;28;20030;-59
2021/12/16 15:09:56;;;;;;;6.68;3.85;;;4.40;99.90;;;;;;20724290;28;20647;-59
2021/12/16 15:40:59;;;;;;;5.20;2.47;;;2.90;99.90;;;;;;20783015;28;20057;-58
2021/12/16 15:51:11;;;;;;;1.95;0.70;;;2.80;99.90;;;;;;20804258;28;20030;-60
2021/12/16 16:01:18;;;;;;;4.90;2.22;;;2.70;99.90;;;;;;20818746;28;20037;-60
2021/12/16 16:11:27;;;;;;;1.35;0.70;;;2.60;99.90;;;;;;20782072;28;20395;-60
2021/12/16 16:21:34;;;;;;;1.67;0.57;;;2.40;99.90;;;;;;20719721;28;20046;-58
2021/12/16 16:31:38;;;;;;;0.90;0.40;;;2.10;99.90;;;;;;20719793;28;20092;-60
2021/12/16 16:41:46;;;;;;;3.63;1.20;;;2.00;99.90;;;;;;20781503;28;20057;-50
2021/12/16 16:51:49;;;;;;;0.70;0.20;;;1.90;99.90;;;;;;20800134;28;20033;-50
2021/12/16 17:01:52;;;;;;;0.60;0.20;;;1.90;99.90;;;;;;20800833;28;20033;-50
2021/12/16 17:11:55;;;;;;;1.00;0.40;;;1.90;99.90;;;;;;20800041;28;20109;-50
2021/12/16 17:21:59;;;;;;;1.85;0.50;;;2.00;99.90;;;;;;20799308;28;20501;-55
2021/12/16 17:32:04;;;;;;;0.50;0.20;;;2.20;99.90;;;;;;20809636;28;20034;-51
2021/12/16 17:42:13;;;;;;;1.55;0.70;;;2.10;99.90;;;;;;20813087;28;20107;-53
2021/12/16 17:52:21;;;;;;;1.30;0.60;;;1.90;99.90;;;;;;20813378;28;20088;-53
2021/12/16 18:02:25;;;;;;;1.20;0.60;;;1.90;99.90;;;;;;20812755;28;20063;-52
2021/12/16 18:12:32;;;;;;;2.35;0.80;;;2.00;99.90;;;;;;20796108;28;20080;-54
2021/12/16 18:22:42;;;;;;;2.33;0.93;;;2.00;99.90;;;;;;20811264;28;20061;-49
2021/12/16 18:32:52;;;;;;;3.35;1.20;;;1.80;99.90;;;;;;20811233;28;20056;-52
2021/12/16 18:42:59;;;;;;;1.73;0.90;;;1.60;99.90;;;;;;20811089;28;20410;-53
2021/12/16 19:03:15;;;;;;;1.58;0.73;;;1.60;99.90;;;;;;20808009;28;20033;-52
2021/12/16 19:13:28;;;;;;;0.95;0.60;;;1.60;99.90;;;;;;20758174;28;20095;-51
2021/12/16 19:23:31;;;;;;;1.67;0.65;;;1.40;99.90;;;;;;20806490;28;20087;-49
2021/12/16 19:33:35;;;;;;;0.80;0.20;;;1.20;99.90;;;;;;20805150;28;20030;-51
2021/12/16 19:43:39;;;;;;;4.50;2.00;;;1.00;99.90;;;;;;20739524;28;20111;-51
2021/12/16 19:53:43;;;;;;;0.70;0.40;;;1.10;99.90;;;;;;20721447;28;20487;-50
2021/12/16 20:03:55;;;;;;;3.80;2.10;;;0.70;99.90;;;;;;20721516;28;20038;-53
2021/12/16 20:13:59;;;;;;;2.70;1.40;;;0.90;99.90;;;;;;20720612;28;20540;-50
2021/12/16 20:24:05;;;;;;;6.25;2.85;;;0.80;99.90;;;;;;20753424;28;20034;-55
2021/12/16 20:34:24;;;;;;;4.93;2.50;;;0.80;99.90;;;;;;20720152;28;20042;-49
2021/12/16 20:44:30;;;;;;;4.05;1.55;;;0.80;99.90;;;;;;20719554;28;20095;-50
2021/12/16 20:54:37;;;;;;;0.82;0.50;;;0.90;99.90;;;;;;20718765;28;20108;-49
2021/12/16 21:04:42;;;;;;;2.92;0.50;;;0.90;99.90;;;;;;20760222;28;20046;-52
2021/12/16 21:14:49;;;;;;;0.60;0.10;;;1.10;99.90;;;;;;20735028;28;20041;-51
2021/12/16 21:24:53;;;;;;;0.30;0.10;;;1.20;99.90;;;;;;20734162;28;20099;-50
2021/12/16 21:35:00;;;;;;;1.10;0.70;;;1.90;99.90;;;;;;20770933;28;20564;-50
2021/12/16 21:45:07;;;;;;;0.25;0.10;;;2.30;99.90;;;;;;20814577;28;20131;-53
2021/12/16 21:55:16;;;;;;;0.20;0.10;;;2.10;99.90;;;;;;20813285;28;20037;-52
2021/12/16 22:05:21;;;;;;;0.00;0.00;;;2.30;99.90;;;;;;20812399;28;20483;-53
2021/12/16 22:15:27;;;;;;;0.43;0.10;;;2.40;99.90;;;;;;20811644;28;20033;-50
2021/12/16 22:25:30;;;;;;;0.20;0.05;;;2.30;99.90;;;;;;20795179;28;20034;-52
2021/12/16 22:35:33;;;;;;;0.20;0.10;;;2.30;99.90;;;;;;20802009;28;20471;-53
2021/12/16 22:45:38;;;;;;;0.40;0.10;;;2.30;99.90;;;;;;20809597;28;20038;-56
2021/12/16 22:55:41;;;;;;;0.00;0.00;;;2.30;99.40;;;;;;20808843;28;20509;-51
2021/12/16 23:05:44;;;;;;;0.57;0.10;;;2.20;99.90;;;;;;20809082;28;20394;-53
2021/12/16 23:25:57;;;;;;;0.08;0.00;;;2.30;99.90;;;;;;20805038;28;20029;-51
2021/12/16 23:36:00;;;;;;;0.55;0.10;;;2.40;99.90;;;;;;20822991;28;20501;-50
2021/12/16 23:56:14;;;;;;;0.08;0.00;;;2.00;99.90;;;;;;20804142;28;20071;-51
